Time;durP1;ratioP1;P1;durP2;ratioP2;P2;SDS_P1;SDS_P2;PMS_P1;PMS_P2;Temp;Humidity;BMP_temperature;BMP_pressure;BME280_temperature;BME280_humidity;BME280_pressure;Samples;Min_cycle;Max_cycle;Signal;HPM_P1;HPM_P2
2022/07/31 00:00:26;;;;;;;12.95;11.75;;;;;;;;;;10507891;28;20079;-73
2022/07/31 00:05:27;;;;;;;10.23;9.33;;;;;;;;;;10513929;28;20100;-74
2022/07/31 00:10:28;;;;;;;11.43;10.43;;;;;;;;;;10514766;28;20271;-75
2022/07/31 00:15:28;;;;;;;11.35;10.25;;;;;;;;;;10519759;28;20109;-74
2022/07/31 00:20:28;;;;;;;11.90;10.90;;;;;;;;;;10521343;28;20039;-73
2022/07/31 00:25:30;;;;;;;12.00;10.90;;;;;;;;;;10507085;28;20138;-73
2022/07/31 00:30:31;;;;;;;11.95;10.95;;;;;;;;;;10511582;28;20040;-72
2022/07/31 00:35:31;;;;;;;11.10;10.00;;;;;;;;;;10499649;28;20578;-73
2022/07/31 00:40:32;;;;;;;11.63;10.52;;;;;;;;;;10512398;28;20043;-73
2022/07/31 00:45:33;;;;;;;11.32;10.15;;;;;;;;;;10496856;28;20124;-75
2022/07/31 00:50:33;;;;;;;12.13;11.03;;;;;;;;;;10502247;28;20499;-73
2022/07/31 00:55:34;;;;;;;12.25;11.15;;;;;;;;;;10512923;28;20282;-76
2022/07/31 01:00:34;;;;;;;11.23;10.20;;;;;;;;;;10505240;28;20100;-74
2022/07/31 01:05:36;;;;;;;11.33;10.33;;;;;;;;;;10521863;28;20135;-73
2022/07/31 01:10:56;;;;;;;12.15;10.95;;;;;;;;;;10518938;28;20380;-74
2022/07/31 01:15:58;;;;;;;14.55;11.98;;;;;;;;;;10510551;28;20456;-74
2022/07/31 01:21:03;;;;;;;12.63;11.43;;;;;;;;;;10501946;28;20447;-75
2022/07/31 01:26:03;;;;;;;;;;;;;;;;;;10515379;28;20101;-74
2022/07/31 01:31:12;;;;;;;12.13;10.95;;;;;;;;;;10504654;28;20001;-74
2022/07/31 01:36:18;;;;;;;12.50;11.25;;;;;;;;;;10514102;28;20052;-74
2022/07/31 01:41:22;;;;;;;12.20;11.07;;;;;;;;;;10512825;28;20057;-74
2022/07/31 01:46:23;;;;;;;11.02;10.02;;;;;;;;;;10510302;28;20048;-74
2022/07/31 01:51:25;;;;;;;;;;;;;;;;;;10507607;28;20044;-73
2022/07/31 01:56:28;;;;;;;12.13;10.63;;;;;;;;;;10506744;28;19920;-74
2022/07/31 02:01:29;;;;;;;12.55;11.35;;;;;;;;;;10497980;28;20053;-74
2022/07/31 02:06:30;;;;;;;11.63;10.52;;;;;;;;;;10510038;28;20063;-72
2022/07/31 02:11:33;;;;;;;11.68;10.57;;;;;;;;;;10515701;28;20045;-73
2022/07/31 02:16:34;;;;;;;10.00;9.05;;;;;;;;;;10531760;28;20066;-74
2022/07/31 02:21:42;;;;;;;11.00;9.95;;;;;;;;;;10534269;28;20045;-74
2022/07/31 02:26:45;;;;;;;12.73;11.45;;;;;;;;;;10521175;28;20395;-74
2022/07/31 02:31:47;;;;;;;11.90;10.73;;;;;;;;;;10552090;28;20039;-77
2022/07/31 02:36:48;;;;;;;11.43;10.27;;;;;;;;;;10566522;28;20059;-76
2022/07/31 02:41:51;;;;;;;11.60;10.43;;;;;;;;;;10560875;28;20048;-73
2022/07/31 02:46:51;;;;;;;10.90;9.90;;;;;;;;;;10511137;28;20114;-74
2022/07/31 02:51:52;;;;;;;11.10;10.00;;;;;;;;;;10506681;28;20097;-74
2022/07/31 02:56:52;;;;;;;11.88;10.68;;;;;;;;;;10508777;27;20494;-73
2022/07/31 03:01:54;;;;;;;11.98;10.85;;;;;;;;;;10498110;28;20048;-73
2022/07/31 03:13:05;;;;;;;12.02;10.73;;;;;;;;;;10514599;28;20344;-75
2022/07/31 03:18:06;;;;;;;13.27;11.98;;;;;;;;;;10519898;28;20052;-73
2022/07/31 03:23:11;;;;;;;14.88;13.27;;;;;;;;;;10508061;28;20372;-73
2022/07/31 03:28:21;;;;;;;14.77;13.27;;;;;;;;;;10508437;28;20448;-73
2022/07/31 03:33:22;;;;;;;14.57;13.05;;;;;;;;;;10514212;28;20040;-73
2022/07/31 03:38:22;;;;;;;14.68;13.18;;;;;;;;;;10502188;28;20430;-74
2022/07/31 03:43:26;;;;;;;14.33;12.93;;;;;;;;;;10523061;28;20039;-75
2022/07/31 03:48:29;;;;;;;13.55;12.25;;;;;;;;;;10510355;28;20048;-74
2022/07/31 03:53:31;;;;;;;14.15;12.48;;;;;;;;;;10522121;28;20037;-73
2022/07/31 03:58:32;;;;;;;13.55;12.15;;;;;;;;;;10497977;28;20048;-73
2022/07/31 04:03:33;;;;;;;14.27;12.88;;;;;;;;;;10515242;28;20045;-73
2022/07/31 04:08:52;;;;;;;14.38;12.93;;;;;;;;;;10516051;28;20131;-75
2022/07/31 04:13:53;;;;;;;14.40;13.00;;;;;;;;;;10515410;28;20788;-73
2022/07/31 04:18:55;;;;;;;15.07;13.57;;;;;;;;;;10514409;28;20056;-75
2022/07/31 04:23:56;;;;;;;14.93;13.43;;;;;;;;;;10512549;28;20047;-75
2022/07/31 04:29:19;;;;;;;14.98;13.48;;;;;;;;;;10506633;28;20074;-73
2022/07/31 04:34:19;;;;;;;16.60;14.82;;;;;;;;;;10519158;28;20040;-74
2022/07/31 04:39:20;;;;;;;16.27;14.63;;;;;;;;;;10512808;28;20048;-74
2022/07/31 04:44:20;;;;;;;15.95;14.27;;;;;;;;;;10514818;28;20036;-75
2022/07/31 04:49:29;;;;;;;15.65;14.05;;;;;;;;;;10508735;28;20032;-74
2022/07/31 04:54:29;;;;;;;14.25;12.95;;;;;;;;;;10513862;28;20391;-74
2022/07/31 04:59:32;;;;;;;15.30;13.80;;;;;;;;;;10503227;28;20048;-75
2022/07/31 05:04:33;;;;;;;14.77;13.32;;;;;;;;;;10514283;28;20582;-73
2022/07/31 05:09:34;;;;;;;14.93;13.43;;;;;;;;;;10506996;28;20108;-74
2022/07/31 05:14:35;;;;;;;14.15;12.65;;;;;;;;;;10496651;28;20311;-74
2022/07/31 05:19:36;;;;;;;15.07;13.57;;;;;;;;;;10509902;28;20139;-74
2022/07/31 05:24:56;;;;;;;14.38;12.90;;;;;;;;;;10517938;28;20048;-73
2022/07/31 05:29:56;;;;;;;14.25;12.93;;;;;;;;;;10519400;28;20044;-73
2022/07/31 05:34:57;;;;;;;12.70;11.40;;;;;;;;;;10508361;28;20044;-73
2022/07/31 05:39:58;;;;;;;14.27;12.85;;;;;;;;;;10511811;28;20113;-74
2022/07/31 05:45:24;;;;;;;15.95;14.43;;;;;;;;;;10491353;28;20055;-72
2022/07/31 05:50:25;;;;;;;14.93;13.43;;;;;;;;;;10512127;28;20055;-73
2022/07/31 05:55:25;;;;;;;16.50;14.88;;;;;;;;;;10520457;28;20493;-72
2022/07/31 06:00:45;;;;;;;14.95;13.55;;;;;;;;;;10520596;28;20146;-71
2022/07/31 06:05:46;;;;;;;16.35;14.85;;;;;;;;;;10517996;28;20090;-73
2022/07/31 06:10:46;;;;;;;15.68;14.07;;;;;;;;;;10502201;28;20123;-72
2022/07/31 06:15:47;;;;;;;16.52;14.93;;;;;;;;;;10511756;28;20044;-72
2022/07/31 06:20:47;;;;;;;16.70;15.10;;;;;;;;;;10510615;28;20072;-72
2022/07/31 06:25:48;;;;;;;16.23;14.63;;;;;;;;;;10506665;28;20494;-73
2022/07/31 06:30:48;;;;;;;15.65;14.15;;;;;;;;;;10508704;28;20535;-73
2022/07/31 06:35:48;;;;;;;16.30;14.77;;;;;;;;;;10495092;28;20499;-72
2022/07/31 06:46:54;;;;;;;15.65;14.15;;;;;;;;;;10520442;28;20051;-73
2022/07/31 06:52:17;;;;;;;16.73;15.13;;;;;;;;;;10512989;28;20113;-73
2022/07/31 06:57:18;;;;;;;14.95;13.55;;;;;;;;;;10518054;28;20040;-72
2022/07/31 07:02:18;;;;;;;14.18;12.95;;;;;;;;;;10499726;28;20135;-72
2022/07/31 07:07:19;;;;;;;13.70;12.30;;;;;;;;;;10514720;28;20399;-70
2022/07/31 07:12:22;;;;;;;13.50;12.30;;;;;;;;;;10516618;28;20062;-71
2022/07/31 07:17:22;;;;;;;15.00;13.35;;;;;;;;;;10511130;28;20192;-71
2022/07/31 07:22:23;;;;;;;12.30;11.20;;;;;;;;;;10521856;28;20052;-72
2022/07/31 07:27:23;;;;;;;12.45;11.35;;;;;;;;;;10528224;28;20093;-71
2022/07/31 07:32:24;;;;;;;12.05;10.85;;;;;;;;;;10519616;28;20036;-72
2022/07/31 07:37:27;;;;;;;11.93;10.82;;;;;;;;;;10528944;28;20110;-73
2022/07/31 07:42:29;;;;;;;11.20;10.23;;;;;;;;;;10515643;28;20099;-72
2022/07/31 07:47:30;;;;;;;10.03;9.13;;;;;;;;;;10517210;28;20475;-72
2022/07/31 07:52:30;;;;;;;10.10;9.27;;;;;;;;;;10507737;28;20403;-72
2022/07/31 07:58:03;;;;;;;10.25;9.27;;;;;;;;;;10476687;28;20298;-72
2022/07/31 08:03:22;;;;;;;8.45;7.18;;;;;;;;;;10509796;28;20048;-73
2022/07/31 08:08:22;;;;;;;11.85;10.52;;;;;;;;;;10531661;28;20494;-72
2022/07/31 08:13:23;;;;;;;8.47;7.70;;;;;;;;;;10517287;28;20050;-73
2022/07/31 08:18:42;;;;;;;7.40;6.70;;;;;;;;;;10532100;28;20044;-73
2022/07/31 08:23:43;;;;;;;7.07;6.43;;;;;;;;;;10520676;28;20067;-75
2022/07/31 08:28:43;;;;;;;7.63;7.03;;;;;;;;;;10518755;28;20089;-73
2022/07/31 08:33:44;;;;;;;7.13;6.60;;;;;;;;;;10493210;28;20044;-72
2022/07/31 08:38:44;;;;;;;6.43;5.80;;;;;;;;;;10504040;28;20051;-73
2022/07/31 08:44:03;;;;;;;6.15;5.55;;;;;;;;;;10508757;28;20044;-72
2022/07/31 08:49:05;;;;;;;6.60;6.00;;;;;;;;;;10520406;28;20036;-72
2022/07/31 08:54:06;;;;;;;8.20;7.43;;;;;;;;;;10518674;28;20042;-71
2022/07/31 08:59:07;;;;;;;5.57;5.07;;;;;;;;;;10518681;28;20139;-72
2022/07/31 09:04:07;;;;;;;5.88;5.38;;;;;;;;;;10512786;28;20123;-72
2022/07/31 09:09:09;;;;;;;7.17;5.30;;;;;;;;;;10507021;28;20470;-71
2022/07/31 09:14:09;;;;;;;6.03;5.23;;;;;;;;;;10521320;28;20043;-71
2022/07/31 09:19:34;;;;;;;5.90;5.40;;;;;;;;;;10507628;28;20455;-71
2022/07/31 09:24:39;;;;;;;6.18;5.68;;;;;;;;;;10532432;27;20177;-73
2022/07/31 09:29:40;;;;;;;7.83;5.67;;;;;;;;;;10508745;28;20682;-73
2022/07/31 09:34:49;;;;;;;6.95;6.25;;;;;;;;;;10517741;28;20266;-73
2022/07/31 09:39:52;;;;;;;5.85;5.35;;;;;;;;;;10496877;28;20059;-74
2022/07/31 09:45:20;;;;;;;8.18;7.38;;;;;;;;;;10492140;28;20369;-73
2022/07/31 09:50:23;;;;;;;6.20;5.22;;;;;;;;;;10514422;28;20437;-74
2022/07/31 09:55:24;;;;;;;4.65;4.25;;;;;;;;;;10494743;28;20040;-70
2022/07/31 10:00:26;;;;;;;4.55;4.15;;;;;;;;;;10513787;28;20494;-71
2022/07/31 10:05:26;;;;;;;4.55;3.83;;;;;;;;;;10511553;28;20538;-73
2022/07/31 10:16:35;;;;;;;6.53;4.30;;;;;;;;;;10509028;28;20044;-70
2022/07/31 10:21:38;;;;;;;4.05;3.42;;;;;;;;;;10506237;28;20044;-71
2022/07/31 10:26:45;;;;;;;4.82;3.92;;;;;;;;;;10521800;28;20062;-71
2022/07/31 10:31:45;;;;;;;5.30;3.67;;;;;;;;;;10521208;28;20590;-72
2022/07/31 10:36:47;;;;;;;4.00;3.70;;;;;;;;;;10528324;28;20054;-73
2022/07/31 10:42:06;;;;;;;3.40;3.20;;;;;;;;;;10497699;28;20080;-72
2022/07/31 10:47:14;;;;;;;3.47;3.10;;;;;;;;;;10507258;28;20056;-72
2022/07/31 10:52:37;;;;;;;6.05;3.72;;;;;;;;;;10509363;28;20049;-74
2022/07/31 10:57:50;;;;;;;3.30;3.05;;;;;;;;;;10520821;28;20123;-72
2022/07/31 11:03:15;;;;;;;3.47;3.17;;;;;;;;;;10519264;28;20051;-73
2022/07/31 11:08:52;;;;;;;14.90;12.45;;;;;;;;;;10493964;28;20037;-73
2022/07/31 11:14:32;;;;;;;3.72;2.75;;;;;;;;;;10512546;28;20383;-72
2022/07/31 11:19:58;;;;;;;3.25;2.45;;;;;;;;;;10513109;28;20720;-71
2022/07/31 11:24:59;;;;;;;3.27;2.50;;;;;;;;;;10515386;28;20048;-73
2022/07/31 11:30:07;;;;;;;3.43;2.87;;;;;;;;;;10518502;28;20154;-72
2022/07/31 11:35:07;;;;;;;4.10;3.17;;;;;;;;;;10523707;27;20472;-73
2022/07/31 11:40:09;;;;;;;2.80;2.47;;;;;;;;;;10527743;28;20090;-72
2022/07/31 11:45:10;;;;;;;3.42;2.60;;;;;;;;;;10507387;28;20156;-74
2022/07/31 11:50:11;;;;;;;3.33;1.90;;;;;;;;;;10513481;28;20047;-72
2022/07/31 11:55:13;;;;;;;2.67;1.98;;;;;;;;;;10519168;28;20123;-72
2022/07/31 12:00:14;;;;;;;2.63;2.25;;;;;;;;;;10520107;28;20111;-74
2022/07/31 12:05:15;;;;;;;2.30;2.10;;;;;;;;;;10527296;28;20047;-73
2022/07/31 12:10:16;;;;;;;2.43;2.10;;;;;;;;;;10515299;28;20070;-71
2022/07/31 12:15:17;;;;;;;2.67;2.10;;;;;;;;;;10529880;28;20036;-72
2022/07/31 12:20:18;;;;;;;;;;;;;;;;;;10558759;28;20055;-75
2022/07/31 12:25:18;;;;;;;4.85;2.08;;;;;;;;;;10509936;28;20371;-74
2022/07/31 12:30:19;;;;;;;4.67;3.13;;;;;;;;;;10513411;28;20052;-72
2022/07/31 12:35:19;;;;;;;2.83;2.40;;;;;;;;;;10518814;28;20103;-73
2022/07/31 12:40:21;;;;;;;2.80;2.30;;;;;;;;;;10524085;28;20647;-73
2022/07/31 12:45:32;;;;;;;2.65;2.20;;;;;;;;;;10518628;28;20052;-72
2022/07/31 12:50:32;;;;;;;2.83;2.60;;;;;;;;;;10521500;28;20066;-72
2022/07/31 12:55:34;;;;;;;2.95;2.50;;;;;;;;;;10503428;28;20040;-74
2022/07/31 13:00:34;;;;;;;3.23;2.10;;;;;;;;;;10495076;28;20048;-72
2022/07/31 13:05:34;;;;;;;2.43;1.97;;;;;;;;;;10509503;28;20044;-71
2022/07/31 13:10:36;;;;;;;3.15;2.67;;;;;;;;;;10514520;28;20055;-71
2022/07/31 13:15:37;;;;;;;3.57;2.20;;;;;;;;;;10506156;28;20036;-71
2022/07/31 13:20:38;;;;;;;2.63;1.95;;;;;;;;;;10517640;28;20041;-73
2022/07/31 13:25:38;;;;;;;3.67;2.50;;;;;;;;;;10512761;28;20048;-69
2022/07/31 13:30:39;;;;;;;3.67;2.00;;;;;;;;;;10522433;28;20048;-69
2022/07/31 13:35:39;;;;;;;3.37;2.57;;;;;;;;;;10521416;28;20044;-70
2022/07/31 13:45:58;;;;;;;3.53;2.40;;;;;;;;;;10504020;28;20044;-76
2022/07/31 13:50:59;;;;;;;2.83;2.63;;;;;;;;;;10499069;28;20044;-77
2022/07/31 13:55:59;;;;;;;2.90;2.30;;;;;;;;;;10527407;28;20044;-75
2022/07/31 14:01:00;;;;;;;3.00;2.47;;;;;;;;;;10519464;28;20106;-75
2022/07/31 14:06:01;;;;;;;2.63;2.40;;;;;;;;;;10526043;28;20040;-78
2022/07/31 14:11:02;;;;;;;2.57;2.10;;;;;;;;;;10514267;28;20119;-78
2022/07/31 14:16:02;;;;;;;;;;;;;;;;;;10537698;28;20486;-77
2022/07/31 14:21:05;;;;;;;5.30;2.40;;;;;;;;;;10542072;27;19919;-79
2022/07/31 14:26:05;;;;;;;3.03;2.40;;;;;;;;;;10522519;28;20051;-78
2022/07/31 14:31:05;;;;;;;3.37;2.23;;;;;;;;;;10503697;28;20060;-79
2022/07/31 14:36:06;;;;;;;2.87;2.53;;;;;;;;;;10520110;28;20044;-78
2022/07/31 14:41:06;;;;;;;3.30;3.10;;;;;;;;;;10529134;28;20075;-76
2022/07/31 14:46:07;;;;;;;2.87;2.37;;;;;;;;;;10531759;28;20048;-80
2022/07/31 14:51:07;;;;;;;3.37;2.40;;;;;;;;;;10525224;28;20051;-77
2022/07/31 14:56:08;;;;;;;2.50;2.30;;;;;;;;;;10538531;27;20036;-75
2022/07/31 15:01:08;;;;;;;2.57;2.37;;;;;;;;;;10526442;28;20059;-78
2022/07/31 15:06:09;;;;;;;2.60;2.40;;;;;;;;;;10547420;28;20044;-76
2022/07/31 15:11:09;;;;;;;3.10;2.70;;;;;;;;;;10542514;28;20224;-76
2022/07/31 15:16:09;;;;;;;6.80;6.20;;;;;;;;;;10549989;28;20051;-79
2022/07/31 15:21:11;;;;;;;2.50;2.30;;;;;;;;;;10579346;28;20047;-72
2022/07/31 15:26:11;;;;;;;3.55;3.25;;;;;;;;;;10560778;28;20036;-73
2022/07/31 15:31:11;;;;;;;3.10;2.63;;;;;;;;;;10535350;28;20041;-73
2022/07/31 15:36:12;;;;;;;3.33;3.03;;;;;;;;;;10519425;28;20044;-75
2022/07/31 15:41:12;;;;;;;3.43;2.43;;;;;;;;;;10531224;28;20052;-82
2022/07/31 15:46:14;;;;;;;2.95;2.30;;;;;;;;;;10554808;28;20040;-84
2022/07/31 15:51:14;;;;;;;2.60;2.30;;;;;;;;;;10539599;28;20151;-75
2022/07/31 15:56:16;;;;;;;2.63;2.43;;;;;;;;;;10521617;28;20483;-73
2022/07/31 16:01:16;;;;;;;4.47;4.07;;;;;;;;;;10518620;28;20196;-73
2022/07/31 16:06:17;;;;;;;2.50;2.30;;;;;;;;;;10508766;28;20645;-74
2022/07/31 16:11:17;;;;;;;3.37;2.30;;;;;;;;;;10520536;28;20121;-73
2022/07/31 16:16:17;;;;;;;2.83;2.63;;;;;;;;;;10511063;28;20523;-75
2022/07/31 16:21:18;;;;;;;2.53;2.33;;;;;;;;;;10516279;28;20049;-72
2022/07/31 16:26:18;;;;;;;3.50;2.40;;;;;;;;;;10515293;28;20042;-74
2022/07/31 16:31:18;;;;;;;3.20;2.27;;;;;;;;;;10511917;28;20044;-72
2022/07/31 16:36:20;;;;;;;2.40;1.97;;;;;;;;;;10511659;27;20355;-73
2022/07/31 16:41:21;;;;;;;2.55;2.10;;;;;;;;;;10509445;28;20059;-72
2022/07/31 16:46:21;;;;;;;2.57;2.37;;;;;;;;;;10508436;28;20453;-73
2022/07/31 16:51:21;;;;;;;2.83;2.60;;;;;;;;;;10503106;28;20040;-73
2022/07/31 16:56:22;;;;;;;3.10;2.30;;;;;;;;;;10516363;28;20036;-74
2022/07/31 17:01:22;;;;;;;3.83;2.77;;;;;;;;;;10510920;28;20051;-72
2022/07/31 17:06:23;;;;;;;3.07;2.77;;;;;;;;;;10522705;28;20480;-73
2022/07/31 17:11:23;;;;;;;4.07;3.77;;;;;;;;;;10507082;28;20470;-75
2022/07/31 17:16:24;;;;;;;2.50;2.30;;;;;;;;;;10509110;28;20046;-74
2022/07/31 17:21:24;;;;;;;3.17;2.87;;;;;;;;;;10511585;28;20080;-73
2022/07/31 17:26:24;;;;;;;3.00;2.13;;;;;;;;;;10507318;28;20040;-72
2022/07/31 17:31:25;;;;;;;2.57;2.37;;;;;;;;;;10497354;22;20051;-74
2022/07/31 17:36:25;;;;;;;2.60;2.40;;;;;;;;;;10421070;22;20087;-73
2022/07/31 17:41:26;;;;;;;3.30;2.97;;;;;;;;;;10387820;28;20073;-75
2022/07/31 17:46:27;;;;;;;3.40;3.10;;;;;;;;;;10386780;28;20131;-71
2022/07/31 17:51:28;;;;;;;2.78;2.58;;;;;;;;;;10397426;28;20048;-73
2022/07/31 17:56:28;;;;;;;11.77;8.50;;;;;;;;;;10370951;28;20041;-74
2022/07/31 18:01:29;;;;;;;8.87;6.97;;;;;;;;;;10395785;28;20041;-73
2022/07/31 18:06:29;;;;;;;5.47;4.70;;;;;;;;;;10398469;28;20449;-73
2022/07/31 18:11:30;;;;;;;3.97;3.53;;;;;;;;;;10382629;28;20488;-74
2022/07/31 18:16:30;;;;;;;3.10;2.80;;;;;;;;;;10383473;28;20044;-75
2022/07/31 18:21:31;;;;;;;2.80;2.60;;;;;;;;;;10403452;28;20065;-73
2022/07/31 18:26:31;;;;;;;3.23;2.93;;;;;;;;;;10368746;28;20049;-73
2022/07/31 18:31:31;;;;;;;3.60;2.73;;;;;;;;;;10404360;28;20120;-74
2022/07/31 18:36:32;;;;;;;4.60;4.00;;;;;;;;;;10384542;28;20045;-73
2022/07/31 18:41:33;;;;;;;3.70;3.40;;;;;;;;;;10404632;28;20069;-72
2022/07/31 18:46:33;;;;;;;3.73;3.43;;;;;;;;;;10406796;28;20132;-75
2022/07/31 18:51:34;;;;;;;3.37;3.10;;;;;;;;;;10403249;28;20063;-74
2022/07/31 18:56:34;;;;;;;3.57;3.00;;;;;;;;;;10411479;28;20086;-73
2022/07/31 19:01:35;;;;;;;3.50;3.20;;;;;;;;;;10390153;28;20064;-75
2022/07/31 19:06:35;;;;;;;5.05;4.60;;;;;;;;;;10386056;28;20068;-74
2022/07/31 19:11:37;;;;;;;18.38;16.10;;;;;;;;;;10401382;28;20048;-76
2022/07/31 19:16:47;;;;;;;13.38;12.02;;;;;;;;;;10408703;28;20053;-80
2022/07/31 19:21:47;;;;;;;8.82;7.72;;;;;;;;;;10421520;28;20049;-78
2022/07/31 19:26:48;;;;;;;5.00;4.60;;;;;;;;;;10429077;28;20068;-80
2022/07/31 19:31:48;;;;;;;4.10;3.70;;;;;;;;;;10426978;28;20049;-81
2022/07/31 19:36:49;;;;;;;3.70;3.33;;;;;;;;;;10438656;28;20069;-80
2022/07/31 19:41:49;;;;;;;3.30;3.00;;;;;;;;;;10477782;28;20036;-81
2022/07/31 19:46:50;;;;;;;3.78;3.47;;;;;;;;;;10512446;28;20040;-80
2022/07/31 19:51:50;;;;;;;4.40;4.00;;;;;;;;;;10526165;28;20078;-76
2022/07/31 19:56:50;;;;;;;4.10;3.70;;;;;;;;;;10497093;28;20352;-76
2022/07/31 20:01:51;;;;;;;4.97;4.50;;;;;;;;;;10504861;28;20059;-77
2022/07/31 20:06:52;;;;;;;8.40;7.07;;;;;;;;;;10502490;28;20274;-78
2022/07/31 20:11:53;;;;;;;5.43;4.90;;;;;;;;;;10498311;28;20129;-76
2022/07/31 20:16:53;;;;;;;4.73;4.27;;;;;;;;;;10489852;28;20051;-76
2022/07/31 20:21:54;;;;;;;4.95;4.25;;;;;;;;;;10488918;28;20044;-77
2022/07/31 20:26:54;;;;;;;5.10;4.60;;;;;;;;;;10485533;28;20044;-76
2022/07/31 20:31:54;;;;;;;4.80;4.40;;;;;;;;;;10492346;28;20044;-74
2022/07/31 20:36:57;;;;;;;5.53;4.97;;;;;;;;;;10483706;28;20037;-74
2022/07/31 20:41:58;;;;;;;8.35;7.20;;;;;;;;;;10473669;28;20086;-75
2022/07/31 20:46:58;;;;;;;8.30;6.97;;;;;;;;;;10483074;28;20120;-74
2022/07/31 20:51:59;;;;;;;6.97;5.10;;;;;;;;;;10455806;28;20730;-73
2022/07/31 20:56:59;;;;;;;6.18;5.57;;;;;;;;;;10483581;28;20308;-74
2022/07/31 21:01:59;;;;;;;5.47;4.80;;;;;;;;;;10496279;28;20052;-75
2022/07/31 21:07:00;;;;;;;4.77;4.37;;;;;;;;;;10491655;28;20048;-73
2022/07/31 21:12:01;;;;;;;4.80;4.30;;;;;;;;;;10485440;28;20044;-73
2022/07/31 21:17:01;;;;;;;4.47;4.07;;;;;;;;;;10482681;28;20089;-74
2022/07/31 21:22:01;;;;;;;4.30;3.90;;;;;;;;;;10481608;28;20110;-75
2022/07/31 21:27:03;;;;;;;4.47;4.07;;;;;;;;;;10482307;28;20075;-74
2022/07/31 21:32:04;;;;;;;4.13;3.83;;;;;;;;;;10490107;28;20283;-72
2022/07/31 21:37:05;;;;;;;4.47;3.97;;;;;;;;;;10486267;28;20440;-73
2022/07/31 21:42:06;;;;;;;4.55;4.15;;;;;;;;;;10488898;28;20512;-73
2022/07/31 21:47:09;;;;;;;5.20;4.55;;;;;;;;;;10469033;28;20039;-73
2022/07/31 21:52:10;;;;;;;4.95;4.55;;;;;;;;;;10481319;28;20087;-74
2022/07/31 21:57:10;;;;;;;5.22;4.75;;;;;;;;;;10478339;28;20537;-74
2022/07/31 22:02:11;;;;;;;5.40;4.90;;;;;;;;;;10486708;28;20102;-74
2022/07/31 22:12:30;;;;;;;4.47;4.18;;;;;;;;;;10481613;28;20043;-74
2022/07/31 22:17:30;;;;;;;3.90;3.60;;;;;;;;;;10504035;28;20502;-75
2022/07/31 22:22:31;;;;;;;4.60;4.20;;;;;;;;;;10503592;28;20340;-74
2022/07/31 22:32:51;;;;;;;4.57;4.28;;;;;;;;;;10483631;28;20054;-74
2022/07/31 22:37:51;;;;;;;4.22;3.90;;;;;;;;;;10480207;28;20113;-73
2022/07/31 22:42:52;;;;;;;4.68;4.28;;;;;;;;;;10492289;28;20139;-73
2022/07/31 22:47:53;;;;;;;4.60;4.20;;;;;;;;;;10493333;28;20047;-74
2022/07/31 22:52:54;;;;;;;5.65;5.20;;;;;;;;;;10488852;28;20047;-73
2022/07/31 22:57:54;;;;;;;6.10;5.50;;;;;;;;;;10490810;28;20442;-74
2022/07/31 23:02:54;;;;;;;6.60;6.00;;;;;;;;;;10495315;28;20423;-74
2022/07/31 23:07:55;;;;;;;6.97;5.37;;;;;;;;;;10493256;28;20399;-74
2022/07/31 23:12:55;;;;;;;5.63;5.13;;;;;;;;;;10489433;28;20287;-74
2022/07/31 23:17:56;;;;;;;5.70;5.18;;;;;;;;;;10489134;28;20780;-74
2022/07/31 23:22:56;;;;;;;5.87;5.27;;;;;;;;;;10485166;28;20535;-72
2022/07/31 23:27:56;;;;;;;6.60;6.00;;;;;;;;;;10486345;28;20283;-74
2022/07/31 23:32:57;;;;;;;7.47;6.40;;;;;;;;;;10485567;28;20287;-73
2022/07/31 23:37:57;;;;;;;6.97;6.37;;;;;;;;;;10495075;28;20071;-76
2022/07/31 23:42:57;;;;;;;6.20;5.60;;;;;;;;;;10489682;28;20048;-73
2022/07/31 23:47:58;;;;;;;5.93;5.43;;;;;;;;;;10485009;28;20075;-74
2022/07/31 23:52:58;;;;;;;5.97;5.43;;;;;;;;;;10481985;28;20044;-72
2022/07/31 23:57:58;;;;;;;6.53;5.93;;;;;;;;;;10484160;28;20394;-73
